Time;durP1;ratioP1;P1;durP2;ratioP2;P2;SDS_P1;SDS_P2;PMS_P1;PMS_P2;Temp;Humidity;BMP_temperature;BMP_pressure;BME280_temperature;BME280_humidity;BME280_pressure;Samples;Min_cycle;Max_cycle;Signal;HPM_P1;HPM_P2
2021/04/05 02:47:31;;;;;;;7.68;4.38;;;5.10;98.70;;;;;;4827835;23;88876;-89
2021/04/05 02:49:57;;;;;;;10.00;5.53;;;5.00;99.90;;;;;;4831904;29;86772;-89
2021/04/05 02:52:22;;;;;;;8.40;5.50;;;4.80;99.90;;;;;;4831203;29;86985;-89
2021/04/05 02:54:48;;;;;;;9.40;5.15;;;4.80;99.90;;;;;;4814523;29;90947;-90
2021/04/05 02:57:15;;;;;;;6.05;4.40;;;4.70;99.90;;;;;;4832433;29;86860;-89
2021/04/05 02:59:41;;;;;;;7.15;4.35;;;4.60;99.40;;;;;;4816896;29;87071;-89
2021/04/05 03:02:07;;;;;;;4.75;2.75;;;4.60;97.10;;;;;;4833605;29;87217;-89
2021/04/05 03:04:34;;;;;;;7.00;3.15;;;4.70;93.50;;;;;;4798282;29;90266;-90
2021/04/05 03:07:00;;;;;;;5.60;3.08;;;4.70;94.00;;;;;;4814981;29;86827;-90
2021/04/05 03:09:26;;;;;;;6.45;3.75;;;4.70;94.20;;;;;;4825887;29;87067;-90
2021/04/05 03:11:55;;;;;;;6.68;4.30;;;4.50;99.90;;;;;;4816225;29;87836;-89
2021/04/05 03:14:22;;;;;;;7.60;5.18;;;4.50;99.90;;;;;;4833326;29;87489;-89
2021/04/05 03:16:49;;;;;;;8.43;5.55;;;4.50;99.90;;;;;;4833009;29;87041;-89
2021/04/05 03:19:16;;;;;;;7.45;5.30;;;4.40;99.90;;;;;;4833328;29;86930;-90
2021/04/05 03:21:43;;;;;;;12.27;4.60;;;4.40;99.90;;;;;;4817614;29;87165;-90
2021/04/05 03:24:11;;;;;;;8.50;4.70;;;4.30;99.90;;;;;;4833666;29;88117;-89
2021/04/05 03:26:37;;;;;;;8.80;5.47;;;4.20;99.90;;;;;;4817037;29;87449;-89
2021/04/05 03:29:04;;;;;;;5.60;4.10;;;4.20;99.90;;;;;;4816479;29;86308;-89
2021/04/05 03:31:35;;;;;;;6.03;3.80;;;4.10;98.70;;;;;;4815949;29;86995;-89
2021/04/05 03:34:08;;;;;;;5.40;3.45;;;4.00;97.20;;;;;;4833088;29;87440;-89
2021/04/05 03:36:51;;;;;;;5.95;3.28;;;3.90;97.20;;;;;;4833023;29;87847;-90
2021/04/05 03:39:17;;;;;;;5.50;3.35;;;3.90;95.60;;;;;;4834068;29;86123;-89
2021/04/05 03:41:53;;;;;;;6.40;3.33;;;3.90;95.80;;;;;;4834745;29;86872;-89
2021/04/05 03:44:38;;;;;;;6.53;3.28;;;3.80;95.60;;;;;;4833763;29;87752;-89
2021/04/05 03:47:19;;;;;;;3.90;2.40;;;3.80;95.20;;;;;;4814268;29;90162;-88
2021/04/05 03:49:53;;;;;;;3.78;2.22;;;3.90;92.50;;;;;;4795727;29;86905;-88
2021/04/05 03:52:26;;;;;;;4.47;2.60;;;4.30;90.70;;;;;;4806523;29;87456;-89
2021/04/05 03:54:57;;;;;;;7.45;2.60;;;4.70;87.80;;;;;;4796487;29;91371;-89
2021/04/05 03:57:26;;;;;;;;;;;4.90;85.10;;;;;;4814048;29;87447;-89
2021/04/05 03:59:56;;;;;;;2.78;2.10;;;5.10;82.70;;;;;;4817141;29;86877;-88
2021/04/05 04:02:27;;;;;;;6.15;2.70;;;5.30;81.20;;;;;;4810094;29;87680;-87
2021/04/05 04:05:06;;;;;;;3.65;2.15;;;5.30;80.70;;;;;;4817461;29;87380;-89
2021/04/05 04:07:40;;;;;;;4.90;2.33;;;5.40;79.00;;;;;;4792688;29;90362;-88
2021/04/05 04:10:10;;;;;;;4.07;2.90;;;5.50;78.80;;;;;;4815757;29;86864;-88
2021/04/05 04:12:39;;;;;;;4.03;2.70;;;5.50;77.80;;;;;;4827731;29;86930;-89
2021/04/05 04:15:06;;;;;;;6.82;4.07;;;5.50;79.90;;;;;;4818701;29;89321;-89
2021/04/05 04:17:37;;;;;;;7.78;4.40;;;5.30;86.90;;;;;;4821516;29;90544;-89
2021/04/05 04:20:09;;;;;;;6.95;4.45;;;5.10;88.60;;;;;;4833499;29;85517;-89
2021/04/05 04:22:36;;;;;;;7.93;4.00;;;5.00;91.20;;;;;;4817942;29;86531;-89
2021/04/05 04:25:04;;;;;;;8.90;4.13;;;4.80;93.20;;;;;;4808846;29;90620;-88
2021/04/05 04:27:30;;;;;;;8.98;4.22;;;4.60;95.10;;;;;;4804203;29;91465;-89
2021/04/05 04:29:56;;;;;;;9.77;4.70;;;4.50;95.60;;;;;;4834983;29;86152;-88
2021/04/05 04:32:23;;;;;;;8.05;4.85;;;4.40;97.00;;;;;;4834695;29;86256;-89
2021/04/05 04:34:49;;;;;;;6.60;4.60;;;;;;;;;;4816445;29;91020;-89
2021/04/05 04:37:15;;;;;;;7.13;4.28;;;;;;;;;;4802405;29;90625;-89
2021/04/05 04:39:42;;;;;;;9.63;5.60;;;;;;;;;;4819403;29;86844;-88
2021/04/05 04:42:09;;;;;;;10.10;5.25;;;4.00;98.90;;;;;;4802561;29;87061;-88
2021/04/05 04:44:35;;;;;;;7.70;4.53;;;;;;;;;;4801941;29;88879;-89
2021/04/05 04:47:00;;;;;;;8.18;4.93;;;3.90;99.80;;;;;;4799917;29;89270;-89
2021/04/05 04:49:26;;;;;;;9.10;4.82;;;3.90;99.90;;;;;;4821478;29;87042;-89
2021/04/05 04:51:52;;;;;;;7.05;4.43;;;3.80;99.90;;;;;;4835267;29;88105;-89
2021/04/05 04:54:18;;;;;;;9.43;5.38;;;3.90;99.90;;;;;;4800301;29;90398;-89
2021/04/05 04:56:44;;;;;;;8.57;5.20;;;3.80;99.90;;;;;;4799985;29;91954;-89
2021/04/05 04:59:11;;;;;;;10.50;5.07;;;3.80;99.90;;;;;;4800949;29;86557;-89
2021/04/05 05:01:43;;;;;;;6.13;4.90;;;3.80;99.90;;;;;;4816427;29;86345;-89
2021/04/05 05:04:15;;;;;;;8.15;4.80;;;3.80;99.90;;;;;;4816059;29;88270;-88
2021/04/05 05:06:43;;;;;;;6.55;4.40;;;3.80;99.90;;;;;;4799164;29;90470;-88
2021/04/05 05:09:09;;;;;;;8.70;4.68;;;3.70;99.90;;;;;;4817012;29;86144;-88
2021/04/05 05:11:36;;;;;;;9.55;5.22;;;3.80;99.90;;;;;;4799980;29;87132;-88
2021/04/05 05:14:02;;;;;;;7.88;4.32;;;3.90;99.90;;;;;;4812736;29;87698;-88
2021/04/05 05:16:29;;;;;;;6.20;4.65;;;3.90;99.90;;;;;;4797476;29;87131;-89
2021/04/05 05:18:58;;;;;;;6.30;4.10;;;4.10;99.90;;;;;;4808699;29;86636;-89
2021/04/05 05:21:52;;;;;;;7.45;4.00;;;4.10;99.90;;;;;;4816678;29;87004;-88
2021/04/05 05:24:22;;;;;;;7.45;3.35;;;4.20;99.90;;;;;;4815099;29;87725;-88
2021/04/05 05:26:49;;;;;;;2.85;2.40;;;4.80;87.30;;;;;;4798498;29;86968;-87
2021/04/05 05:29:18;;;;;;;5.07;2.40;;;5.30;81.60;;;;;;4815494;29;86955;-88
2021/04/05 05:31:45;;;;;;;5.35;2.45;;;5.30;82.10;;;;;;4816280;29;86728;-87
2021/04/05 05:34:16;;;;;;;2.90;2.30;;;5.70;82.30;;;;;;4816955;29;86561;-88
2021/04/05 05:36:42;;;;;;;;;;;5.60;82.70;;;;;;4817964;29;86796;-90
2021/04/05 05:39:10;;;;;;;11.27;3.90;;;5.80;86.10;;;;;;4803044;29;86796;-89
2021/04/05 05:42:06;;;;;;;8.07;4.45;;;5.90;90.20;;;;;;4816576;29;87204;-89
2021/04/05 05:44:42;;;;;;;6.03;4.10;;;5.90;92.90;;;;;;4801046;29;87965;-89
2021/04/05 05:47:22;;;;;;;7.15;4.45;;;5.90;93.10;;;;;;4806517;29;86846;-88
2021/04/05 05:50:19;;;;;;;7.85;4.85;;;6.00;94.30;;;;;;4817322;29;86563;-89
2021/04/05 05:52:56;;;;;;;7.57;4.95;;;6.10;95.40;;;;;;4802323;29;86903;-88
2021/04/05 05:55:59;;;;;;;7.45;4.97;;;6.10;96.60;;;;;;4834859;29;86915;-87
2021/04/05 05:59:03;;;;;;;7.32;4.30;;;6.30;96.80;;;;;;4838430;29;86435;-88
2021/04/05 06:01:34;;;;;;;7.82;4.90;;;6.40;95.80;;;;;;4829348;29;85501;-89
2021/04/05 06:04:28;;;;;;;9.98;5.85;;;6.60;94.90;;;;;;4837212;29;86340;-89
2021/04/05 06:07:22;;;;;;;8.27;5.32;;;6.70;94.70;;;;;;4818143;29;88598;-86
2021/04/05 06:10:04;;;;;;;7.72;5.30;;;6.90;94.40;;;;;;4815875;29;87942;-86
2021/04/05 06:12:48;;;;;;;5.50;4.05;;;7.00;93.60;;;;;;4783362;29;87018;-86
2021/04/05 06:15:28;;;;;;;7.10;4.55;;;7.20;92.10;;;;;;4809391;29;86984;-85
2021/04/05 06:18:03;;;;;;;7.30;4.47;;;7.30;91.80;;;;;;4815485;29;88281;-89
2021/04/05 06:20:43;;;;;;;5.32;4.22;;;7.40;91.50;;;;;;4814888;29;87459;-88
2021/04/05 06:23:40;;;;;;;6.28;4.03;;;7.50;92.50;;;;;;4817749;29;87488;-88
2021/04/05 06:26:43;;;;;;;5.25;3.88;;;7.70;92.80;;;;;;4812256;29;87016;-88
2021/04/05 06:29:35;;;;;;;6.07;4.30;;;7.70;92.70;;;;;;4812444;29;89230;-88
2021/04/05 06:32:19;;;;;;;7.60;4.93;;;7.80;93.40;;;;;;4812270;29;87322;-88
2021/04/05 06:35:06;;;;;;;8.02;5.47;;;7.80;93.60;;;;;;4814763;29;86887;-87
2021/04/05 06:37:55;;;;;;;7.57;4.95;;;7.90;93.50;;;;;;4796878;29;87899;-88
2021/04/05 06:40:23;;;;;;;10.02;5.03;;;8.10;92.70;;;;;;4808173;29;88167;-87
2021/04/05 06:43:03;;;;;;;7.15;4.80;;;8.20;93.10;;;;;;4807530;29;86945;-87
2021/04/05 06:45:45;;;;;;;8.85;4.65;;;8.50;92.80;;;;;;4809485;29;86840;-87
2021/04/05 06:48:49;;;;;;;6.82;3.95;;;9.00;91.50;;;;;;4814795;29;86898;-86
2021/04/05 06:51:31;;;;;;;3.72;2.70;;;10.10;66.20;;;;;;4804133;29;86569;-85
2021/04/05 06:54:35;;;;;;;6.45;4.05;;;11.80;60.80;;;;;;4800198;29;87745;-87
2021/04/05 06:57:12;;;;;;;6.45;4.07;;;13.90;61.30;;;;;;4812739;29;86220;-88
2021/04/05 06:59:57;;;;;;;4.60;3.85;;;15.60;57.60;;;;;;4815334;29;87125;-87
2021/04/05 07:02:56;;;;;;;6.32;3.90;;;17.00;51.90;;;;;;4797304;29;88008;-87
2021/04/05 07:05:59;;;;;;;3.28;2.80;;;17.30;45.30;;;;;;4797022;29;89309;-88
2021/04/05 07:08:36;;;;;;;3.75;3.38;;;16.50;43.70;;;;;;4790466;29;86848;-89
2021/04/05 07:11:26;;;;;;;3.45;2.90;;;17.40;43.40;;;;;;4806529;29;86996;-89
2021/04/05 07:14:28;;;;;;;3.67;3.10;;;18.00;38.80;;;;;;4814813;29;88671;-89
2021/04/05 07:17:13;;;;;;;3.47;3.15;;;18.60;39.10;;;;;;4795244;29;88864;-88
2021/04/05 07:19:47;;;;;;;4.55;3.03;;;18.40;38.50;;;;;;4811803;29;86948;-89
2021/04/05 07:22:38;;;;;;;4.07;3.00;;;17.50;40.50;;;;;;4800570;29;86902;-89
2021/04/05 07:25:17;;;;;;;3.97;2.60;;;16.70;39.80;;;;;;4815197;29;87456;-88
2021/04/05 07:27:54;;;;;;;3.63;2.50;;;16.70;38.60;;;;;;4805917;29;89186;-89
2021/04/05 07:30:46;;;;;;;4.82;3.28;;;17.30;39.20;;;;;;4802461;29;87110;-89
2021/04/05 07:33:34;;;;;;;4.65;3.53;;;19.70;38.80;;;;;;4796367;29;87576;-89
2021/04/05 07:36:29;;;;;;;2.75;2.50;;;20.20;37.10;;;;;;4791318;29;88775;-88
2021/04/05 07:39:13;;;;;;;3.10;2.65;;;19.10;33.50;;;;;;4814371;29;87220;-89
2021/04/05 07:42:04;;;;;;;2.90;2.03;;;18.20;34.60;;;;;;4815506;29;86899;-89
2021/04/05 07:44:49;;;;;;;4.78;2.63;;;17.40;35.30;;;;;;4820567;29;87350;-90
2021/04/05 07:48:05;;;;;;;3.90;2.53;;;17.30;35.40;;;;;;4796928;29;89065;-91
2021/04/05 07:50:35;;;;;;;3.78;2.78;;;17.40;35.50;;;;;;4745600;29;88163;-89
2021/04/05 07:53:22;;;;;;;3.17;2.33;;;20.90;31.50;;;;;;4740130;29;86397;-90
2021/04/05 07:55:49;;;;;;;2.70;2.20;;;21.20;31.30;;;;;;4773272;29;87028;-91
2021/04/05 07:58:22;;;;;;;7.90;2.80;;;22.50;31.20;;;;;;4783399;29;89728;-91
2021/04/05 08:01:05;;;;;;;3.03;2.50;;;23.00;29.20;;;;;;4798996;29;87878;-88
2021/04/05 08:04:02;;;;;;;3.65;2.45;;;21.70;29.50;;;;;;4812311;29;87277;-89
2021/04/05 08:06:38;;;;;;;4.40;2.15;;;20.00;31.80;;;;;;4814085;29;86434;-90
2021/04/05 08:09:09;;;;;;;4.40;4.10;;;20.00;39.10;;;;;;4799555;29;87573;-91
2021/04/05 08:12:12;;;;;;;2.78;2.40;;;19.90;32.20;;;;;;4817785;29;87437;-90
2021/04/05 08:14:56;;;;;;;4.22;3.78;;;22.00;34.10;;;;;;4800417;29;87321;-89
2021/04/05 08:17:51;;;;;;;2.58;2.35;;;21.70;30.00;;;;;;4825345;29;86979;-89
2021/04/05 08:20:58;;;;;;;3.75;3.50;;;22.20;32.90;;;;;;4817477;29;86318;-87
2021/04/05 08:24:03;;;;;;;4.13;3.67;;;22.80;33.10;;;;;;4821329;29;87879;-90
2021/04/05 08:26:41;;;;;;;3.42;2.78;;;22.60;29.80;;;;;;4750981;29;86772;-88
2021/04/05 08:29:34;;;;;;;4.05;2.65;;;22.90;28.30;;;;;;4767553;29;88046;-89
2021/04/05 08:32:09;;;;;;;3.90;3.65;;;21.60;28.90;;;;;;4816031;29;89003;-91
2021/04/05 08:34:59;;;;;;;2.58;2.22;;;21.60;29.30;;;;;;4818981;29;87890;-90
2021/04/05 08:38:02;;;;;;;2.20;2.00;;;21.70;29.40;;;;;;4818391;29;86582;-90
2021/04/05 08:40:50;;;;;;;2.30;2.10;;;21.60;29.00;;;;;;4837249;29;86281;-90
2021/04/05 08:43:40;;;;;;;2.47;2.10;;;21.90;29.00;;;;;;4813143;29;88653;-88
2021/04/05 08:46:30;;;;;;;2.63;2.13;;;23.10;28.90;;;;;;4802171;29;87718;-92
2021/04/05 08:49:10;;;;;;;2.40;2.00;;;23.00;27.90;;;;;;4845154;29;85465;-91
2021/04/05 08:51:42;;;;;;;2.78;2.15;;;23.60;28.90;;;;;;4836582;29;86199;-88
2021/04/05 08:54:10;;;;;;;4.60;4.20;;;25.70;27.00;;;;;;4812240;29;88440;-88
2021/04/05 08:56:41;;;;;;;3.97;2.30;;;25.70;27.40;;;;;;4816336;29;87657;-91
2021/04/05 08:59:20;;;;;;;2.55;2.30;;;29.50;26.50;;;;;;4802042;29;86788;-91
2021/04/05 09:01:59;;;;;;;3.58;3.28;;;29.70;26.60;;;;;;4800171;29;87119;-92
2021/04/05 09:04:27;;;;;;;3.63;3.25;;;31.00;26.70;;;;;;4813764;29;87494;-86
2021/04/05 09:07:05;;;;;;;4.55;3.50;;;32.00;26.40;;;;;;4818504;29;86479;-90
2021/04/05 09:09:35;;;;;;;3.88;3.58;;;33.10;24.90;;;;;;4813275;29;86923;-90
2021/04/05 09:12:06;;;;;;;3.55;3.25;;;33.20;25.60;;;;;;4819240;29;87064;-91
2021/04/05 09:14:46;;;;;;;3.58;3.22;;;33.50;24.70;;;;;;4803035;29;87534;-92
2021/04/05 09:17:50;;;;;;;5.78;5.28;;;33.70;24.90;;;;;;4814620;29;88803;-91
2021/04/05 09:20:30;;;;;;;5.57;5.18;;;34.20;24.50;;;;;;4802806;29;86794;-91
2021/04/05 09:23:35;;;;;;;4.15;3.75;;;34.30;24.40;;;;;;4818926;29;87911;-91
2021/04/05 09:26:38;;;;;;;4.00;3.60;;;36.00;24.00;;;;;;4802611;29;88322;-92
2021/04/05 09:29:09;;;;;;;4.07;3.78;;;37.00;23.70;;;;;;4820011;29;87348;-90
2021/04/05 09:31:40;;;;;;;3.85;3.55;;;37.20;23.40;;;;;;4815932;29;86923;-89
2021/04/05 09:34:31;;;;;;;4.18;3.83;;;37.40;23.30;;;;;;4815171;29;87180;-90
2021/04/05 09:37:21;;;;;;;5.07;4.07;;;38.10;22.80;;;;;;4818706;29;87759;-92
2021/04/05 09:39:46;;;;;;;;;;;38.40;22.40;;;;;;4803398;29;89157;-92
2021/04/05 09:42:48;;;;;;;5.60;5.20;;;37.60;22.30;;;;;;4823656;29;85594;-93
2021/04/05 09:45:42;;;;;;;5.90;5.40;;;37.50;22.40;;;;;;4803910;29;86808;-91
2021/04/05 09:48:27;;;;;;;6.15;5.57;;;37.60;22.60;;;;;;4822987;29;87876;-94
2021/04/05 09:51:14;;;;;;;6.00;5.40;;;37.70;22.40;;;;;;4821859;29;87583;-93
2021/04/05 09:53:56;;;;;;;4.20;3.80;;;37.80;22.40;;;;;;4803928;29;86825;-93
2021/04/05 09:56:26;;;;;;;3.92;3.53;;;37.60;22.50;;;;;;4806699;29;86636;-94
2021/04/05 09:58:57;;;;;;;4.50;4.10;;;37.30;22.60;;;;;;4817602;29;87384;-91
2021/04/05 10:01:25;;;;;;;5.65;5.20;;;35.50;22.30;;;;;;4818785;29;88508;-92
2021/04/05 10:03:56;;;;;;;5.47;4.97;;;34.70;22.70;;;;;;4803120;29;86885;-91
2021/04/05 10:06:24;;;;;;;4.80;4.50;;;34.10;22.60;;;;;;4801365;29;87007;-92
2021/04/05 10:08:58;;;;;;;5.90;5.40;;;33.60;22.80;;;;;;4799508;29;88217;-92
2021/04/05 10:11:28;;;;;;;5.13;4.72;;;33.00;23.10;;;;;;4799316;29;88063;-92
2021/04/05 10:13:59;;;;;;;5.53;5.03;;;32.20;23.20;;;;;;4770130;29;86920;-89
2021/04/05 10:16:26;;;;;;;5.07;3.20;;;32.10;23.60;;;;;;4793591;29;87859;-90
2021/04/05 10:18:56;;;;;;;5.35;4.88;;;31.70;24.20;;;;;;4819268;29;87833;-89
2021/04/05 10:21:24;;;;;;;7.43;4.88;;;31.30;24.20;;;;;;4800910;29;90314;-90
2021/04/05 10:23:55;;;;;;;4.60;3.90;;;31.00;24.30;;;;;;4820057;29;86866;-93
2021/04/05 10:26:21;;;;;;;6.53;5.28;;;;;;;;;;4815587;29;86909;-92
2021/04/05 10:28:52;;;;;;;7.22;5.30;;;30.80;24.30;;;;;;4817424;29;87152;-94
2021/04/05 10:31:21;;;;;;;5.40;5.00;;;29.60;24.40;;;;;;4803130;29;87338;-93
2021/04/05 10:34:01;;;;;;;5.25;4.85;;;29.50;24.80;;;;;;4821306;29;85994;-92
2021/04/05 10:36:40;;;;;;;6.22;5.18;;;28.80;25.80;;;;;;4798771;29;87543;-92
2021/04/05 10:39:07;;;;;;;4.32;3.60;;;27.90;25.80;;;;;;4793463;29;88176;-90
2021/04/05 10:41:37;;;;;;;5.13;4.82;;;26.40;26.40;;;;;;4793537;29;87832;-91
2021/04/05 10:44:23;;;;;;;;;;;26.30;26.80;;;;;;4816842;29;87397;-92
2021/04/05 10:46:55;;;;;;;4.15;3.25;;;25.50;27.40;;;;;;4797507;29;86315;-92
2021/04/05 10:49:32;;;;;;;5.88;3.70;;;24.70;27.60;;;;;;4813452;29;86482;-90
2021/04/05 10:52:10;;;;;;;13.65;10.50;;;24.40;27.90;;;;;;4798852;29;88922;-92
2021/04/05 10:54:50;;;;;;;262.08;234.88;;;24.10;29.00;;;;;;4801758;29;86850;-92
2021/04/05 10:57:37;;;;;;;124.50;111.38;;;24.10;29.00;;;;;;4824989;29;86568;-94
2021/04/05 11:00:09;;;;;;;60.03;55.70;;;24.60;27.70;;;;;;4820561;29;87270;-92
2021/04/05 11:02:41;;;;;;;25.48;23.10;;;24.10;28.10;;;;;;4801320;29;88890;-93
2021/04/05 11:05:13;;;;;;;15.15;12.38;;;22.70;26.30;;;;;;4801792;29;86681;-93
2021/04/05 11:07:41;;;;;;;6.25;5.72;;;21.40;27.30;;;;;;4799604;29;87644;-91
2021/04/05 11:10:18;;;;;;;4.43;3.58;;;20.50;28.10;;;;;;4781760;29;87693;-93
2021/04/05 11:12:47;;;;;;;3.80;3.50;;;19.30;28.90;;;;;;4803931;29;87793;-91
2021/04/05 11:15:20;;;;;;;5.47;3.80;;;18.90;28.80;;;;;;4814961;29;86572;-92
2021/04/05 11:17:50;;;;;;;6.13;3.80;;;18.30;29.70;;;;;;4819878;29;86350;-93
2021/04/05 11:20:19;;;;;;;4.45;4.03;;;18.40;29.50;;;;;;4815897;29;88120;-92
2021/04/05 11:22:55;;;;;;;6.05;4.10;;;18.40;30.00;;;;;;4783796;29;86908;-91
2021/04/05 11:25:28;;;;;;;3.30;2.47;;;18.40;30.60;;;;;;4798912;29;85575;-91
2021/04/05 11:28:07;;;;;;;4.43;4.03;;;19.00;30.30;;;;;;4815350;29;86463;-91
2021/04/05 11:30:34;;;;;;;43.13;30.50;;;18.90;30.00;;;;;;4821780;29;87611;-92
2021/04/05 11:33:24;;;;;;;28.52;22.83;;;19.30;30.10;;;;;;4797914;29;89443;-92
2021/04/05 11:35:52;;;;;;;14.00;12.73;;;20.10;29.10;;;;;;4815557;29;86967;-91
2021/04/05 11:38:22;;;;;;;41.83;37.67;;;21.80;28.00;;;;;;4787062;29;86895;-91
2021/04/05 11:41:11;;;;;;;4.32;3.92;;;22.10;26.70;;;;;;4796368;29;89361;-89
2021/04/05 11:43:42;;;;;;;4.75;4.30;;;21.50;27.40;;;;;;4808055;29;88353;-90
2021/04/05 11:46:12;;;;;;;4.53;4.22;;;21.80;28.20;;;;;;4815728;29;86695;-91
2021/04/05 11:48:38;;;;;;;5.13;2.92;;;21.40;28.40;;;;;;4802281;29;87064;-91
2021/04/05 11:51:04;;;;;;;3.20;2.83;;;22.10;28.10;;;;;;4813142;29;89049;-92
2021/04/05 11:53:53;;;;;;;5.63;4.13;;;23.60;27.20;;;;;;4821693;29;86895;-91
2021/04/05 11:56:28;;;;;;;4.05;3.75;;;23.80;26.10;;;;;;4798278;29;86630;-90
2021/04/05 11:59:23;;;;;;;3.95;3.72;;;23.90;26.50;;;;;;4817218;29;87567;-92
2021/04/05 12:02:32;;;;;;;8.05;4.22;;;26.20;25.50;;;;;;4815697;29;87751;-92
2021/04/05 12:05:03;;;;;;;4.57;4.05;;;26.70;24.70;;;;;;4816873;29;89582;-92
2021/04/05 12:07:29;;;;;;;2.63;2.42;;;26.80;25.40;;;;;;4803642;29;86769;-92
2021/04/05 12:10:06;;;;;;;4.53;3.70;;;25.80;25.00;;;;;;4808869;29;87125;-91
2021/04/05 12:12:45;;;;;;;3.97;2.60;;;25.70;25.60;;;;;;4822451;29;87442;-92
2021/04/05 12:15:17;;;;;;;4.60;4.20;;;24.20;26.40;;;;;;4816049;29;87045;-91
2021/04/05 12:17:48;;;;;;;4.00;3.72;;;23.60;26.10;;;;;;4804930;29;85605;-92
2021/04/05 12:20:24;;;;;;;;;;;23.60;26.50;;;;;;4804930;29;86768;-92
2021/04/05 12:22:55;;;;;;;5.10;3.90;;;23.60;27.10;;;;;;4803655;29;88537;-90
2021/04/05 12:25:30;;;;;;;;;;;23.30;27.00;;;;;;4820467;29;89360;-91
2021/04/05 12:28:01;;;;;;;5.75;4.15;;;24.00;27.00;;;;;;4806804;29;86612;-91
2021/04/05 12:30:34;;;;;;;3.90;2.80;;;24.50;27.30;;;;;;4800712;29;86422;-92
2021/04/05 12:33:02;;;;;;;4.32;2.80;;;26.10;27.70;;;;;;4811458;29;87781;-92
2021/04/05 12:35:29;;;;;;;4.25;3.72;;;27.50;26.40;;;;;;4814761;29;87760;-91
2021/04/05 12:37:58;;;;;;;3.45;2.47;;;27.40;26.70;;;;;;4767959;29;87010;-90
2021/04/05 12:40:31;;;;;;;3.47;2.83;;;26.50;25.00;;;;;;4813987;29;86965;-91
2021/04/05 12:43:16;;;;;;;4.78;3.67;;;24.90;25.30;;;;;;4832685;29;87521;-90
2021/04/05 12:45:51;;;;;;;4.10;2.60;;;24.80;25.60;;;;;;4798499;29;89359;-91
2021/04/05 12:48:22;;;;;;;2.67;2.42;;;24.50;26.50;;;;;;4784431;29;87308;-91
2021/04/05 12:50:54;;;;;;;2.50;2.20;;;24.50;26.00;;;;;;4786421;29;87705;-91
2021/04/05 12:53:25;;;;;;;3.92;2.40;;;24.00;26.30;;;;;;4799355;29;88400;-91
2021/04/05 12:55:52;;;;;;;5.50;2.33;;;23.40;26.70;;;;;;4800129;29;89953;-90
2021/04/05 12:58:23;;;;;;;2.15;1.98;;;23.30;27.00;;;;;;4820504;29;86468;-91
2021/04/05 13:00:52;;;;;;;2.78;2.20;;;23.50;26.60;;;;;;4817485;29;86327;-92
2021/04/05 13:03:52;;;;;;;4.13;3.72;;;24.40;26.20;;;;;;4828446;29;89526;-90
2021/04/05 13:06:23;;;;;;;3.08;2.70;;;24.50;26.70;;;;;;4806949;29;87858;-90
2021/04/05 13:09:04;;;;;;;3.80;3.60;;;26.30;25.00;;;;;;4814259;29;85391;-91
2021/04/05 13:12:19;;;;;;;4.20;3.90;;;26.70;24.50;;;;;;4794336;29;86397;-89
2021/04/05 13:14:54;;;;;;;2.40;2.20;;;27.00;25.10;;;;;;4790728;29;87953;-91
2021/04/05 13:17:30;;;;;;;2.60;2.40;;;28.00;24.70;;;;;;4798819;29;88944;-91
2021/04/05 13:19:55;;;;;;;3.72;2.58;;;28.20;24.10;;;;;;4799562;29;86974;-91
2021/04/05 13:22:28;;;;;;;4.03;3.72;;;28.20;23.50;;;;;;4791022;29;87052;-92
2021/04/05 13:25:23;;;;;;;3.53;2.40;;;28.10;23.90;;;;;;4790936;29;86931;-93
2021/04/05 13:27:51;;;;;;;4.38;2.63;;;27.70;24.60;;;;;;4787503;29;89165;-93
2021/04/05 13:30:19;;;;;;;4.25;3.90;;;27.20;24.30;;;;;;4809158;29;87032;-90
2021/04/05 13:32:53;;;;;;;4.57;3.72;;;25.10;24.90;;;;;;4800467;29;87097;-92
2021/04/05 13:35:22;;;;;;;3.97;3.67;;;24.40;25.40;;;;;;4802746;29;86745;-90
2021/04/05 13:37:53;;;;;;;3.05;2.40;;;24.30;25.80;;;;;;4798308;29;87076;-91
2021/04/05 13:40:25;;;;;;;4.57;3.97;;;22.70;25.40;;;;;;4798054;29;86303;-91
2021/04/05 13:42:52;;;;;;;3.42;2.78;;;22.60;25.70;;;;;;4798804;29;87750;-91
2021/04/05 13:45:19;;;;;;;6.85;4.00;;;20.80;27.20;;;;;;4795670;29;88129;-92
2021/04/05 13:47:48;;;;;;;4.35;3.60;;;20.20;27.70;;;;;;4800852;29;88571;-91
2021/04/05 13:50:18;;;;;;;3.35;2.47;;;20.10;28.10;;;;;;4812985;29;86980;-90
2021/04/05 13:52:57;;;;;;;3.80;3.50;;;19.60;28.40;;;;;;4809729;29;86815;-91
2021/04/05 13:55:34;;;;;;;4.85;2.28;;;19.50;28.60;;;;;;4786799;29;89143;-91
2021/04/05 13:58:23;;;;;;;3.95;2.08;;;19.40;29.20;;;;;;4807845;29;87220;-90
2021/04/05 14:00:50;;;;;;;2.38;2.17;;;19.40;29.60;;;;;;4816894;29;86178;-90
2021/04/05 14:03:22;;;;;;;3.65;3.25;;;19.40;28.70;;;;;;4799669;29;87145;-91
2021/04/05 14:05:53;;;;;;;3.38;3.15;;;19.30;28.90;;;;;;4815684;29;87322;-91
2021/04/05 14:08:25;;;;;;;2.03;1.85;;;19.40;29.20;;;;;;4816138;29;87391;-90
2021/04/05 14:11:05;;;;;;;3.60;3.30;;;19.60;28.40;;;;;;4816051;29;87013;-90
2021/04/05 14:13:32;;;;;;;;;;;19.60;29.00;;;;;;4796599;29;86409;-91
2021/04/05 14:16:11;;;;;;;3.15;2.17;;;19.40;29.50;;;;;;4813868;29;87639;-89
2021/04/05 14:18:39;;;;;;;2.95;2.03;;;19.20;29.60;;;;;;4792860;29;89001;-90
2021/04/05 14:21:07;;;;;;;2.30;2.05;;;19.00;29.90;;;;;;4817263;29;86988;-90
2021/04/05 14:24:06;;;;;;;4.28;3.88;;;18.80;33.80;;;;;;4798222;29;86738;-90
2021/04/05 14:26:45;;;;;;;6.38;4.22;;;18.60;37.30;;;;;;4814407;29;86002;-91
2021/04/05 14:29:14;;;;;;;5.00;4.55;;;18.30;39.20;;;;;;4815933;29;87727;-89
2021/04/05 14:31:54;;;;;;;3.45;3.00;;;18.30;39.80;;;;;;4790127;29;86173;-92
2021/04/05 14:34:31;;;;;;;5.60;4.68;;;18.10;40.10;;;;;;4827337;29;87954;-92
2021/04/05 14:37:04;;;;;;;7.30;4.30;;;18.00;39.90;;;;;;4790131;29;87436;-90
2021/04/05 14:39:36;;;;;;;4.43;3.03;;;18.00;40.40;;;;;;4800917;29;87587;-90
2021/04/05 14:42:27;;;;;;;9.02;5.45;;;17.70;41.30;;;;;;4787069;29;86890;-92
2021/04/05 14:45:01;;;;;;;5.82;3.58;;;17.80;42.20;;;;;;4823989;29;87024;-90
2021/04/05 14:47:30;;;;;;;6.47;3.50;;;17.70;42.30;;;;;;4835690;29;87724;-91
2021/04/05 14:50:40;;;;;;;7.13;4.85;;;17.30;41.90;;;;;;4804339;29;89338;-90
2021/04/05 14:53:11;;;;;;;5.00;3.25;;;17.30;42.90;;;;;;4817262;29;85536;-92
2021/04/05 14:55:41;;;;;;;7.38;2.92;;;17.10;40.20;;;;;;4818638;29;87090;-91
2021/04/05 14:58:32;;;;;;;4.63;3.10;;;17.00;40.70;;;;;;4832013;29;86969;-89
2021/04/05 15:01:15;;;;;;;6.68;3.10;;;17.00;40.70;;;;;;4824238;29;87232;-91
2021/04/05 15:04:05;;;;;;;6.50;3.42;;;17.00;41.70;;;;;;4828344;29;86360;-89
2021/04/05 15:06:39;;;;;;;5.85;3.42;;;16.90;41.30;;;;;;4825870;29;86694;-85
2021/04/05 15:09:08;;;;;;;4.85;3.45;;;17.00;41.00;;;;;;4815249;29;88438;-87
2021/04/05 15:11:36;;;;;;;6.00;3.28;;;16.90;42.00;;;;;;4816408;29;87119;-85
2021/04/05 15:14:04;;;;;;;6.93;3.30;;;16.90;41.70;;;;;;4821424;29;86702;-86
2021/04/05 15:16:33;;;;;;;7.85;3.90;;;17.00;42.30;;;;;;4794098;29;87250;-85
2021/04/05 15:19:01;;;;;;;6.68;3.25;;;17.00;42.90;;;;;;4815307;29;87779;-86
2021/04/05 15:21:34;;;;;;;6.82;4.68;;;17.00;44.40;;;;;;4819214;29;87009;-85
2021/04/05 15:24:01;;;;;;;5.97;4.72;;;16.90;42.90;;;;;;4820678;29;86875;-85
2021/04/05 15:26:30;;;;;;;8.73;4.95;;;16.50;42.90;;;;;;4822976;29;87989;-85
2021/04/05 15:29:04;;;;;;;6.53;4.57;;;16.10;42.70;;;;;;4824195;29;87707;-86
2021/04/05 15:31:31;;;;;;;7.00;4.50;;;16.40;43.10;;;;;;4830110;29;86722;-85
2021/04/05 15:34:03;;;;;;;5.45;4.20;;;16.10;42.10;;;;;;4827223;29;86746;-86
2021/04/05 15:36:31;;;;;;;4.97;3.58;;;16.40;42.60;;;;;;4822500;29;86972;-87
2021/04/05 15:38:57;;;;;;;4.25;3.85;;;15.90;41.80;;;;;;4823230;29;87517;-87
2021/04/05 15:41:27;;;;;;;4.70;3.95;;;16.00;41.60;;;;;;4798336;29;89249;-87
2021/04/05 15:44:04;;;;;;;4.13;3.30;;;15.50;41.50;;;;;;4816437;29;86280;-91
2021/04/05 15:46:41;;;;;;;5.88;3.70;;;15.50;41.90;;;;;;4813989;29;86884;-86
2021/04/05 15:49:10;;;;;;;5.82;3.10;;;;;;;;;;4813410;29;87125;-89
2021/04/05 15:51:39;;;;;;;6.40;4.07;;;15.80;44.40;;;;;;4812113;29;88095;-87
2021/04/05 15:54:13;;;;;;;4.82;3.28;;;15.30;41.70;;;;;;4800361;29;86965;-87
2021/04/05 15:56:44;;;;;;;7.50;3.30;;;14.90;42.40;;;;;;4818017;29;86991;-89
2021/04/05 15:59:18;;;;;;;7.03;2.80;;;15.10;41.20;;;;;;4807261;29;88028;-86
2021/04/05 16:01:59;;;;;;;5.47;4.45;;;15.10;42.40;;;;;;4797126;29;87804;-86
2021/04/05 16:04:45;;;;;;;5.90;3.92;;;15.30;43.30;;;;;;4813889;29;86983;-85
2021/04/05 16:07:26;;;;;;;5.78;3.50;;;15.00;43.00;;;;;;4808743;29;87046;-88
2021/04/05 16:09:58;;;;;;;6.72;3.47;;;14.70;41.50;;;;;;4816077;29;86415;-86
2021/04/05 16:12:35;;;;;;;6.45;2.33;;;14.70;42.20;;;;;;4813022;29;90595;-87
2021/04/05 16:15:13;;;;;;;6.95;3.88;;;14.20;42.70;;;;;;4814452;29;86930;-86
2021/04/05 16:17:48;;;;;;;9.73;3.95;;;14.50;42.50;;;;;;4789038;29;87313;-86
2021/04/05 16:20:16;;;;;;;7.63;3.78;;;14.30;42.70;;;;;;4797256;29;87799;-87
2021/04/05 16:22:51;;;;;;;10.25;4.63;;;14.00;42.20;;;;;;4812553;29;88694;-89
2021/04/05 16:25:22;;;;;;;7.95;3.47;;;13.80;43.20;;;;;;4771121;29;86959;-88
2021/04/05 16:27:57;;;;;;;4.70;3.67;;;14.00;44.10;;;;;;4800971;29;86976;-89